sensor_id;sensor_type;location;lat;lon;timestamp;pressure;altitude;pressure_sealevel;temperature;humidity
30967;BME280;17649;51.836;8.330;2023-01-31T00:01:51;101646.00;;;5.26;nan
30967;BME280;17649;51.836;8.330;2023-01-31T00:04:51;101636.91;;;5.07;nan
30967;BME280;17649;51.836;8.330;2023-01-31T00:07:51;101635.50;;;4.86;nan
30967;BME280;17649;51.836;8.330;2023-01-31T00:10:52;101650.56;;;5.09;nan
30967;BME280;17649;51.836;8.330;2023-01-31T00:13:52;101649.50;;;5.21;nan
30967;BME280;17649;51.836;8.330;2023-01-31T00:16:52;101648.88;;;5.08;nan
30967;BME280;17649;51.836;8.330;2023-01-31T00:19:53;101648.81;;;5.11;nan
30967;BME280;17649;51.836;8.330;2023-01-31T00:22:53;101647.16;;;5.07;nan
30967;BME280;17649;51.836;8.330;2023-01-31T00:25:53;101652.34;;;5.02;nan
30967;BME280;17649;51.836;8.330;2023-01-31T00:28:54;101646.22;;;5.13;nan
30967;BME280;17649;51.836;8.330;2023-01-31T00:31:54;101647.31;;;4.98;nan
30967;BME280;17649;51.836;8.330;2023-01-31T00:34:55;101651.03;;;4.75;nan
30967;BME280;17649;51.836;8.330;2023-01-31T00:37:55;101652.66;;;4.83;nan
30967;BME280;17649;51.836;8.330;2023-01-31T00:40:55;101650.19;;;4.75;nan
30967;BME280;17649;51.836;8.330;2023-01-31T00:43:56;101665.34;;;4.90;nan
30967;BME280;17649;51.836;8.330;2023-01-31T00:46:56;101671.00;;;5.14;nan
30967;BME280;17649;51.836;8.330;2023-01-31T00:49:56;101664.09;;;5.17;nan
30967;BME280;17649;51.836;8.330;2023-01-31T00:52:56;101658.50;;;4.91;nan
30967;BME280;17649;51.836;8.330;2023-01-31T00:56:01;101647.56;;;4.81;nan
30967;BME280;17649;51.836;8.330;2023-01-31T00:59:01;101652.78;;;4.73;nan
30967;BME280;17649;51.836;8.330;2023-01-31T01:02:03;101655.38;;;4.72;nan
30967;BME280;17649;51.836;8.330;2023-01-31T01:05:03;101641.38;;;4.94;nan
30967;BME280;17649;51.836;8.330;2023-01-31T01:08:04;101645.44;;;5.07;nan
30967;BME280;17649;51.836;8.330;2023-01-31T01:11:07;101652.38;;;5.01;nan
30967;BME280;17649;51.836;8.330;2023-01-31T01:14:07;101657.44;;;5.07;nan
30967;BME280;17649;51.836;8.330;2023-01-31T01:17:08;101653.16;;;5.07;nan
30967;BME280;17649;51.836;8.330;2023-01-31T01:20:08;101653.13;;;5.09;nan
30967;BME280;17649;51.836;8.330;2023-01-31T01:23:09;101660.19;;;4.95;nan
30967;BME280;17649;51.836;8.330;2023-01-31T01:26:20;101664.28;;;5.05;nan
30967;BME280;17649;51.836;8.330;2023-01-31T01:29:21;101676.69;;;4.77;nan
30967;BME280;17649;51.836;8.330;2023-01-31T01:32:21;101658.31;;;5.04;nan
30967;BME280;17649;51.836;8.330;2023-01-31T01:35:21;101657.47;;;5.02;nan
30967;BME280;17649;51.836;8.330;2023-01-31T01:38:21;101670.44;;;4.95;nan
30967;BME280;17649;51.836;8.330;2023-01-31T01:41:21;101668.66;;;4.98;nan
30967;BME280;17649;51.836;8.330;2023-01-31T01:47:48;101670.63;;;4.83;nan
30967;BME280;17649;51.836;8.330;2023-01-31T01:50:49;101670.53;;;4.87;nan
30967;BME280;17649;51.836;8.330;2023-01-31T01:53:51;101667.38;;;4.70;nan
30967;BME280;17649;51.836;8.330;2023-01-31T01:56:52;101680.50;;;4.48;nan
30967;BME280;17649;51.836;8.330;2023-01-31T02:00:18;101669.31;;;4.53;nan
30967;BME280;17649;51.836;8.330;2023-01-31T02:03:15;101690.03;;;4.37;nan
30967;BME280;17649;51.836;8.330;2023-01-31T02:06:16;101700.31;;;4.36;nan
30967;BME280;17649;51.836;8.330;2023-01-31T02:12:39;101700.06;;;4.54;nan
30967;BME280;17649;51.836;8.330;2023-01-31T02:15:40;101700.81;;;4.64;nan
30967;BME280;17649;51.836;8.330;2023-01-31T02:18:40;101691.31;;;4.69;nan
30967;BME280;17649;51.836;8.330;2023-01-31T02:28:05;101697.78;;;4.30;nan
30967;BME280;17649;51.836;8.330;2023-01-31T02:37:40;101709.63;;;4.40;nan
30967;BME280;17649;51.836;8.330;2023-01-31T02:41:18;101710.28;;;4.56;nan
30967;BME280;17649;51.836;8.330;2023-01-31T02:44:20;101705.16;;;4.56;nan
30967;BME280;17649;51.836;8.330;2023-01-31T02:51:02;101715.13;;;4.09;nan
30967;BME280;17649;51.836;8.330;2023-01-31T02:54:11;101715.84;;;4.22;nan
30967;BME280;17649;51.836;8.330;2023-01-31T02:57:14;101714.19;;;4.15;nan
30967;BME280;17649;51.836;8.330;2023-01-31T03:00:16;101715.97;;;4.10;nan
30967;BME280;17649;51.836;8.330;2023-01-31T03:03:29;101715.38;;;3.83;nan
30967;BME280;17649;51.836;8.330;2023-01-31T03:12:59;101709.53;;;3.72;nan
30967;BME280;17649;51.836;8.330;2023-01-31T03:23:05;101684.88;;;3.64;nan
30967;BME280;17649;51.836;8.330;2023-01-31T03:26:08;101678.09;;;3.56;nan
30967;BME280;17649;51.836;8.330;2023-01-31T03:29:09;101678.06;;;3.63;nan
30967;BME280;17649;51.836;8.330;2023-01-31T03:32:22;101667.72;;;3.73;nan
30967;BME280;17649;51.836;8.330;2023-01-31T03:35:24;101660.91;;;3.69;nan
30967;BME280;17649;51.836;8.330;2023-01-31T03:38:29;101657.63;;;3.59;nan
30967;BME280;17649;51.836;8.330;2023-01-31T03:41:33;101660.94;;;3.68;nan
30967;BME280;17649;51.836;8.330;2023-01-31T03:47:47;101640.44;;;3.68;nan
30967;BME280;17649;51.836;8.330;2023-01-31T03:50:48;101635.31;;;3.69;nan
30967;BME280;17649;51.836;8.330;2023-01-31T03:53:51;101631.84;;;3.76;nan
30967;BME280;17649;51.836;8.330;2023-01-31T03:59:56;101638.50;;;3.91;nan
30967;BME280;17649;51.836;8.330;2023-01-31T04:02:59;101638.38;;;4.02;nan
30967;BME280;17649;51.836;8.330;2023-01-31T04:06:03;101645.91;;;4.12;nan
30967;BME280;17649;51.836;8.330;2023-01-31T04:09:06;101645.78;;;4.25;nan
30967;BME280;17649;51.836;8.330;2023-01-31T04:12:06;101640.53;;;4.35;nan
30967;BME280;17649;51.836;8.330;2023-01-31T04:15:07;101647.28;;;4.39;nan
30967;BME280;17649;51.836;8.330;2023-01-31T04:18:07;101640.53;;;4.35;nan
30967;BME280;17649;51.836;8.330;2023-01-31T04:21:08;101637.88;;;4.41;nan
30967;BME280;17649;51.836;8.330;2023-01-31T04:24:09;101633.75;;;4.28;nan
30967;BME280;17649;51.836;8.330;2023-01-31T04:27:09;101627.78;;;4.29;nan
30967;BME280;17649;51.836;8.330;2023-01-31T04:30:09;101622.41;;;4.49;nan
30967;BME280;17649;51.836;8.330;2023-01-31T04:33:10;101624.94;;;4.51;nan
30967;BME280;17649;51.836;8.330;2023-01-31T04:36:10;101624.84;;;4.57;nan
30967;BME280;17649;51.836;8.330;2023-01-31T04:39:10;101623.25;;;4.49;nan
30967;BME280;17649;51.836;8.330;2023-01-31T04:42:12;101626.84;;;4.36;nan
30967;BME280;17649;51.836;8.330;2023-01-31T04:45:12;101620.72;;;4.46;nan
30967;BME280;17649;51.836;8.330;2023-01-31T04:48:12;101610.22;;;4.63;nan
30967;BME280;17649;51.836;8.330;2023-01-31T04:51:13;101609.66;;;4.43;nan
30967;BME280;17649;51.836;8.330;2023-01-31T04:54:13;101605.34;;;4.46;nan
30967;BME280;17649;51.836;8.330;2023-01-31T04:57:14;101600.19;;;4.49;nan
30967;BME280;17649;51.836;8.330;2023-01-31T05:00:14;101612.88;;;4.57;nan
30967;BME280;17649;51.836;8.330;2023-01-31T05:03:15;101601.56;;;4.70;nan
30967;BME280;17649;51.836;8.330;2023-01-31T05:06:15;101592.28;;;4.63;nan
30967;BME280;17649;51.836;8.330;2023-01-31T05:09:15;101597.44;;;4.62;nan
30967;BME280;17649;51.836;8.330;2023-01-31T05:12:16;101587.41;;;4.45;nan
30967;BME280;17649;51.836;8.330;2023-01-31T05:15:17;101582.31;;;4.42;nan
30967;BME280;17649;51.836;8.330;2023-01-31T05:18:17;101585.47;;;4.61;nan
30967;BME280;17649;51.836;8.330;2023-01-31T05:21:17;101574.44;;;4.56;nan
30967;BME280;17649;51.836;8.330;2023-01-31T05:24:17;101567.81;;;4.42;nan
30967;BME280;17649;51.836;8.330;2023-01-31T05:27:19;101564.34;;;4.45;nan
30967;BME280;17649;51.836;8.330;2023-01-31T05:30:19;101552.31;;;4.52;nan
30967;BME280;17649;51.836;8.330;2023-01-31T05:33:20;101552.28;;;4.53;nan
30967;BME280;17649;51.836;8.330;2023-01-31T05:36:20;101546.25;;;4.56;nan
30967;BME280;17649;51.836;8.330;2023-01-31T05:39:20;101547.88;;;4.60;nan
30967;BME280;17649;51.836;8.330;2023-01-31T05:42:20;101545.28;;;4.64;nan
30967;BME280;17649;51.836;8.330;2023-01-31T05:45:21;101534.97;;;4.67;nan
30967;BME280;17649;51.836;8.330;2023-01-31T05:48:21;101533.25;;;4.68;nan
30967;BME280;17649;51.836;8.330;2023-01-31T05:51:21;101535.78;;;4.69;nan
30967;BME280;17649;51.836;8.330;2023-01-31T05:54:21;101532.31;;;4.72;nan
30967;BME280;17649;51.836;8.330;2023-01-31T05:57:22;101536.28;;;4.91;nan
30967;BME280;17649;51.836;8.330;2023-01-31T06:00:22;101529.66;;;4.78;nan
30967;BME280;17649;51.836;8.330;2023-01-31T06:03:22;101540.63;;;4.86;nan
30967;BME280;17649;51.836;8.330;2023-01-31T06:06:23;101539.69;;;4.90;nan
30967;BME280;17649;51.836;8.330;2023-01-31T06:09:23;101547.41;;;4.89;nan
30967;BME280;17649;51.836;8.330;2023-01-31T06:12:23;101530.88;;;5.06;nan
30967;BME280;17649;51.836;8.330;2023-01-31T06:15:23;101540.63;;;4.86;nan
30967;BME280;17649;51.836;8.330;2023-01-31T06:18:24;101532.69;;;5.00;nan
30967;BME280;17649;51.836;8.330;2023-01-31T06:21:25;101539.41;;;5.05;nan
30967;BME280;17649;51.836;8.330;2023-01-31T06:24:25;101528.53;;;4.94;nan
30967;BME280;17649;51.836;8.330;2023-01-31T06:27:25;101528.59;;;4.91;nan
30967;BME280;17649;51.836;8.330;2023-01-31T06:30:25;101529.22;;;5.02;nan
30967;BME280;17649;51.836;8.330;2023-01-31T06:33:26;101522.59;;;4.91;nan
30967;BME280;17649;51.836;8.330;2023-01-31T06:36:26;101522.31;;;5.07;nan
30967;BME280;17649;51.836;8.330;2023-01-31T06:39:26;101526.63;;;5.04;nan
30967;BME280;17649;51.836;8.330;2023-01-31T06:42:27;101531.97;;;4.93;nan
30967;BME280;17649;51.836;8.330;2023-01-31T06:45:27;101529.06;;;5.12;nan
30967;BME280;17649;51.836;8.330;2023-01-31T06:48:27;101527.25;;;5.17;nan
30967;BME280;17649;51.836;8.330;2023-01-31T06:51:28;101524.84;;;5.09;nan
30967;BME280;17649;51.836;8.330;2023-01-31T06:54:28;101523.06;;;5.13;nan
30967;BME280;17649;51.836;8.330;2023-01-31T06:57:28;101519.03;;;4.99;nan
30967;BME280;17649;51.836;8.330;2023-01-31T07:00:28;101526.38;;;5.18;nan
30967;BME280;17649;51.836;8.330;2023-01-31T07:03:29;101529.84;;;5.15;nan
30967;BME280;17649;51.836;8.330;2023-01-31T07:06:29;101533.41;;;5.08;nan
30967;BME280;17649;51.836;8.330;2023-01-31T07:09:29;101524.59;;;5.23;nan
30967;BME280;17649;51.836;8.330;2023-01-31T07:12:30;101523.69;;;5.25;nan
30967;BME280;17649;51.836;8.330;2023-01-31T07:15:30;101519.84;;;5.01;nan
30967;BME280;17649;51.836;8.330;2023-01-31T07:18:30;101528.91;;;5.21;nan
30967;BME280;17649;51.836;8.330;2023-01-31T07:21:31;101518.28;;;5.39;nan
30967;BME280;17649;51.836;8.330;2023-01-31T07:24:32;101511.84;;;5.18;nan
30967;BME280;17649;51.836;8.330;2023-01-31T07:27:32;101513.50;;;5.22;nan
30967;BME280;17649;51.836;8.330;2023-01-31T07:30:32;101513.94;;;5.43;nan
30967;BME280;17649;51.836;8.330;2023-01-31T07:33:33;101498.94;;;5.23;nan
30967;BME280;17649;51.836;8.330;2023-01-31T07:36:33;101497.28;;;5.19;nan
30967;BME280;17649;51.836;8.330;2023-01-31T07:39:33;101489.56;;;5.20;nan
30967;BME280;17649;51.836;8.330;2023-01-31T07:42:33;101499.91;;;5.16;nan
30967;BME280;17649;51.836;8.330;2023-01-31T07:45:34;101491.25;;;5.23;nan
30967;BME280;17649;51.836;8.330;2023-01-31T07:48:34;101495.56;;;5.19;nan
30967;BME280;17649;51.836;8.330;2023-01-31T07:51:34;101497.22;;;5.23;nan
30967;BME280;17649;51.836;8.330;2023-01-31T07:54:35;101480.44;;;5.07;nan
30967;BME280;17649;51.836;8.330;2023-01-31T07:57:35;101494.56;;;5.28;nan
30967;BME280;17649;51.836;8.330;2023-01-31T08:00:35;101478.75;;;5.48;nan
30967;BME280;17649;51.836;8.330;2023-01-31T08:03:54;101473.84;;;5.37;nan
30967;BME280;17649;51.836;8.330;2023-01-31T08:06:54;101481.84;;;5.20;nan
30967;BME280;17649;51.836;8.330;2023-01-31T08:09:55;101472.91;;;5.41;nan
30967;BME280;17649;51.836;8.330;2023-01-31T08:12:55;101460.28;;;5.30;nan
30967;BME280;17649;51.836;8.330;2023-01-31T08:15:55;101454.66;;;5.55;nan
30967;BME280;17649;51.836;8.330;2023-01-31T08:18:56;101456.44;;;5.51;nan
30967;BME280;17649;51.836;8.330;2023-01-31T08:21:56;101429.94;;;5.49;nan
30967;BME280;17649;51.836;8.330;2023-01-31T08:24:56;101438.94;;;5.70;nan
30967;BME280;17649;51.836;8.330;2023-01-31T08:27:56;101431.19;;;5.72;nan
30967;BME280;17649;51.836;8.330;2023-01-31T08:30:57;101427.56;;;5.80;nan
30967;BME280;17649;51.836;8.330;2023-01-31T08:33:57;101432.38;;;5.97;nan
30967;BME280;17649;51.836;8.330;2023-01-31T08:36:58;101420.66;;;5.84;nan
30967;BME280;17649;51.836;8.330;2023-01-31T08:40:00;101423.75;;;6.00;nan
30967;BME280;17649;51.836;8.330;2023-01-31T08:43:00;101417.47;;;6.10;nan
30967;BME280;17649;51.836;8.330;2023-01-31T08:46:00;101427.28;;;5.94;nan
30967;BME280;17649;51.836;8.330;2023-01-31T08:49:01;101416.78;;;6.03;nan
30967;BME280;17649;51.836;8.330;2023-01-31T08:52:03;101422.56;;;5.74;nan
30967;BME280;17649;51.836;8.330;2023-01-31T08:55:03;101423.78;;;5.58;nan
30967;BME280;17649;51.836;8.330;2023-01-31T08:58:05;101423.28;;;5.81;nan
30967;BME280;17649;51.836;8.330;2023-01-31T09:01:09;101412.47;;;5.66;nan
30967;BME280;17649;51.836;8.330;2023-01-31T09:04:10;101409.16;;;5.61;nan
30967;BME280;17649;51.836;8.330;2023-01-31T09:07:10;101412.19;;;5.79;nan
30967;BME280;17649;51.836;8.330;2023-01-31T09:10:10;101417.28;;;5.42;nan
30967;BME280;17649;51.836;8.330;2023-01-31T09:13:10;101408.38;;;5.58;nan
30967;BME280;17649;51.836;8.330;2023-01-31T09:16:11;101402.91;;;5.33;nan
30967;BME280;17649;51.836;8.330;2023-01-31T09:19:12;101410.72;;;5.28;nan
30967;BME280;17649;51.836;8.330;2023-01-31T09:22:13;101401.44;;;5.23;nan
30967;BME280;17649;51.836;8.330;2023-01-31T09:25:13;101397.16;;;5.23;nan
30967;BME280;17649;51.836;8.330;2023-01-31T09:28:13;101397.38;;;5.11;nan
30967;BME280;17649;51.836;8.330;2023-01-31T09:31:15;101391.34;;;5.14;nan
30967;BME280;17649;51.836;8.330;2023-01-31T09:34:15;101387.44;;;5.37;nan
30967;BME280;17649;51.836;8.330;2023-01-31T09:37:15;101379.47;;;5.09;nan
30967;BME280;17649;51.836;8.330;2023-01-31T09:40:19;101374.13;;;5.19;nan
30967;BME280;17649;51.836;8.330;2023-01-31T09:43:23;101370.84;;;5.12;nan
30967;BME280;17649;51.836;8.330;2023-01-31T09:46:25;101350.47;;;5.04;nan
30967;BME280;17649;51.836;8.330;2023-01-31T09:49:29;101358.81;;;5.16;nan
30967;BME280;17649;51.836;8.330;2023-01-31T09:52:31;101378.19;;;5.29;nan
30967;BME280;17649;51.836;8.330;2023-01-31T09:55:43;101368.19;;;5.17;nan
30967;BME280;17649;51.836;8.330;2023-01-31T09:59:06;101375.88;;;5.17;nan
30967;BME280;17649;51.836;8.330;2023-01-31T10:02:29;101382.69;;;5.18;nan
30967;BME280;17649;51.836;8.330;2023-01-31T10:08:38;101365.50;;;5.23;nan
30967;BME280;17649;51.836;8.330;2023-01-31T10:11:45;101362.41;;;5.05;nan
30967;BME280;17649;51.836;8.330;2023-01-31T10:14:59;101352.78;;;5.17;nan
30967;BME280;17649;51.836;8.330;2023-01-31T10:18:04;101367.41;;;5.13;nan
30967;BME280;17649;51.836;8.330;2023-01-31T10:21:11;101360.47;;;5.18;nan
30967;BME280;17649;51.836;8.330;2023-01-31T10:24:14;101360.81;;;5.42;nan
30967;BME280;17649;51.836;8.330;2023-01-31T10:27:17;101349.72;;;5.41;nan
30967;BME280;17649;51.836;8.330;2023-01-31T10:30:23;101349.75;;;5.39;nan
30967;BME280;17649;51.836;8.330;2023-01-31T10:39:58;101346.41;;;5.36;nan
30967;BME280;17649;51.836;8.330;2023-01-31T10:43:02;101340.22;;;5.45;nan
30967;BME280;17649;51.836;8.330;2023-01-31T10:46:07;101324.84;;;5.43;nan
30967;BME280;17649;51.836;8.330;2023-01-31T10:49:09;101323.63;;;5.59;nan
30967;BME280;17649;51.836;8.330;2023-01-31T10:52:55;101321.00;;;5.61;nan
30967;BME280;17649;51.836;8.330;2023-01-31T10:55:46;101302.50;;;5.47;nan
30967;BME280;17649;51.836;8.330;2023-01-31T10:58:48;101299.53;;;5.63;nan
30967;BME280;17649;51.836;8.330;2023-01-31T11:01:49;101302.78;;;5.72;nan
30967;BME280;17649;51.836;8.330;2023-01-31T11:04:50;101274.84;;;5.59;nan
30967;BME280;17649;51.836;8.330;2023-01-31T11:07:54;101285.41;;;5.83;nan
30967;BME280;17649;51.836;8.330;2023-01-31T11:10:56;101285.09;;;5.96;nan
30967;BME280;17649;51.836;8.330;2023-01-31T11:14:06;101271.94;;;6.07;nan
30967;BME280;17649;51.836;8.330;2023-01-31T11:17:17;101265.94;;;6.08;nan
30967;BME280;17649;51.836;8.330;2023-01-31T11:20:23;101269.28;;;6.12;nan
30967;BME280;17649;51.836;8.330;2023-01-31T11:23:26;101256.63;;;6.04;nan
30967;BME280;17649;51.836;8.330;2023-01-31T11:26:30;101261.19;;;5.93;nan
30967;BME280;17649;51.836;8.330;2023-01-31T11:29:40;101253.09;;;6.08;nan
30967;BME280;17649;51.836;8.330;2023-01-31T11:32:45;101258.50;;;6.30;nan
30967;BME280;17649;51.836;8.330;2023-01-31T11:35:50;101247.09;;;6.40;nan
30967;BME280;17649;51.836;8.330;2023-01-31T11:38:51;101228.84;;;6.18;nan
30967;BME280;17649;51.836;8.330;2023-01-31T11:41:52;101228.50;;;6.31;nan
30967;BME280;17649;51.836;8.330;2023-01-31T11:45:35;101226.34;;;6.15;nan
30967;BME280;17649;51.836;8.330;2023-01-31T11:48:16;101226.69;;;6.34;nan
30967;BME280;17649;51.836;8.330;2023-01-31T11:51:25;101233.34;;;6.10;nan
30967;BME280;17649;51.836;8.330;2023-01-31T11:54:28;101237.59;;;6.11;nan
30967;BME280;17649;51.836;8.330;2023-01-31T11:57:32;101213.66;;;6.09;nan
30967;BME280;17649;51.836;8.330;2023-01-31T12:00:33;101220.66;;;6.04;nan
30967;BME280;17649;51.836;8.330;2023-01-31T12:03:34;101219.94;;;5.99;nan
30967;BME280;17649;51.836;8.330;2023-01-31T12:06:36;101221.53;;;6.03;nan
30967;BME280;17649;51.836;8.330;2023-01-31T12:09:42;101221.44;;;6.06;nan
30967;BME280;17649;51.836;8.330;2023-01-31T12:12:43;101226.69;;;6.03;nan
30967;BME280;17649;51.836;8.330;2023-01-31T12:15:44;101228.69;;;6.23;nan
30967;BME280;17649;51.836;8.330;2023-01-31T12:18:51;101208.09;;;6.24;nan
30967;BME280;17649;51.836;8.330;2023-01-31T12:22:01;101188.41;;;6.23;nan
30967;BME280;17649;51.836;8.330;2023-01-31T12:25:13;101185.16;;;6.18;nan
30967;BME280;17649;51.836;8.330;2023-01-31T12:28:22;101180.59;;;6.28;nan
30967;BME280;17649;51.836;8.330;2023-01-31T12:31:27;101176.22;;;6.32;nan
30967;BME280;17649;51.836;8.330;2023-01-31T12:38:07;101143.28;;;6.15;nan
30967;BME280;17649;51.836;8.330;2023-01-31T12:41:18;101152.03;;;6.08;nan
30967;BME280;17649;51.836;8.330;2023-01-31T12:44:35;101140.31;;;6.28;nan
30967;BME280;17649;51.836;8.330;2023-01-31T12:47:42;101142.25;;;6.20;nan
30967;BME280;17649;51.836;8.330;2023-01-31T12:50:48;101148.13;;;5.94;nan
30967;BME280;17649;51.836;8.330;2023-01-31T12:53:58;101157.03;;;6.14;nan
30967;BME280;17649;51.836;8.330;2023-01-31T13:00:14;101159.44;;;6.18;nan
30967;BME280;17649;51.836;8.330;2023-01-31T13:06:35;101162.25;;;6.09;nan
30967;BME280;17649;51.836;8.330;2023-01-31T13:09:42;101166.63;;;6.07;nan
30967;BME280;17649;51.836;8.330;2023-01-31T13:13:24;101189.25;;;5.93;nan
30967;BME280;17649;51.836;8.330;2023-01-31T13:17:08;101180.75;;;5.91;nan
30967;BME280;17649;51.836;8.330;2023-01-31T13:19:53;101183.38;;;5.88;nan
30967;BME280;17649;51.836;8.330;2023-01-31T13:22:55;101182.25;;;6.00;nan
30967;BME280;17649;51.836;8.330;2023-01-31T13:25:58;101177.44;;;5.86;nan
30967;BME280;17649;51.836;8.330;2023-01-31T13:29:05;101185.91;;;5.91;nan
30967;BME280;17649;51.836;8.330;2023-01-31T13:32:09;101192.63;;;5.95;nan
30967;BME280;17649;51.836;8.330;2023-01-31T13:35:14;101169.66;;;5.89;nan
30967;BME280;17649;51.836;8.330;2023-01-31T13:38:17;101196.66;;;6.05;nan
30967;BME280;17649;51.836;8.330;2023-01-31T13:44:22;101187.38;;;6.00;nan
30967;BME280;17649;51.836;8.330;2023-01-31T13:47:24;101178.09;;;5.94;nan
30967;BME280;17649;51.836;8.330;2023-01-31T13:53:33;101178.19;;;5.89;nan
30967;BME280;17649;51.836;8.330;2023-01-31T13:56:34;101172.94;;;5.95;nan
30967;BME280;17649;51.836;8.330;2023-01-31T13:59:36;101161.41;;;6.10;nan
30967;BME280;17649;51.836;8.330;2023-01-31T14:02:36;101167.84;;;6.25;nan
30967;BME280;17649;51.836;8.330;2023-01-31T14:11:49;101144.28;;;6.09;nan
30967;BME280;17649;51.836;8.330;2023-01-31T14:14:51;101145.81;;;6.16;nan
30967;BME280;17649;51.836;8.330;2023-01-31T14:20:51;101139.25;;;6.06;nan
30967;BME280;17649;51.836;8.330;2023-01-31T14:23:52;101133.81;;;6.17;nan
30967;BME280;17649;51.836;8.330;2023-01-31T14:26:52;101146.78;;;6.12;nan
30967;BME280;17649;51.836;8.330;2023-01-31T14:30:07;101148.56;;;6.09;nan
30967;BME280;17649;51.836;8.330;2023-01-31T14:36:32;101143.69;;;6.31;nan
30967;BME280;17649;51.836;8.330;2023-01-31T14:52:23;101157.72;;;6.48;nan
30967;BME280;17649;51.836;8.330;2023-01-31T14:58:43;101166.38;;;6.46;nan
30967;BME280;17649;51.836;8.330;2023-01-31T15:01:45;101171.47;;;6.47;nan
30967;BME280;17649;51.836;8.330;2023-01-31T15:04:53;101179.31;;;6.72;nan
30967;BME280;17649;51.836;8.330;2023-01-31T15:07:57;101172.06;;;6.57;nan
30967;BME280;17649;51.836;8.330;2023-01-31T15:10:59;101175.59;;;6.81;nan
30967;BME280;17649;51.836;8.330;2023-01-31T15:14:17;101166.72;;;6.63;nan
30967;BME280;17649;51.836;8.330;2023-01-31T15:21:02;101163.78;;;6.75;nan
30967;BME280;17649;51.836;8.330;2023-01-31T15:23:43;101155.59;;;6.91;nan
30967;BME280;17649;51.836;8.330;2023-01-31T15:26:44;101163.25;;;6.92;nan
30967;BME280;17649;51.836;8.330;2023-01-31T15:35:53;101157.47;;;6.85;nan
30967;BME280;17649;51.836;8.330;2023-01-31T15:38:55;101162.50;;;6.88;nan
30967;BME280;17649;51.836;8.330;2023-01-31T15:41:56;101159.06;;;6.90;nan
30967;BME280;17649;51.836;8.330;2023-01-31T15:48:15;101172.31;;;7.04;nan
30967;BME280;17649;51.836;8.330;2023-01-31T15:51:16;101163.09;;;6.97;nan
30967;BME280;17649;51.836;8.330;2023-01-31T15:54:17;101164.00;;;6.96;nan
30967;BME280;17649;51.836;8.330;2023-01-31T15:57:17;101167.81;;;7.10;nan
30967;BME280;17649;51.836;8.330;2023-01-31T16:00:19;101165.78;;;6.94;nan
30967;BME280;17649;51.836;8.330;2023-01-31T16:03:21;101181.03;;;7.00;nan
30967;BME280;17649;51.836;8.330;2023-01-31T16:06:30;101198.69;;;6.82;nan
30967;BME280;17649;51.836;8.330;2023-01-31T16:09:31;101181.03;;;6.72;nan
30967;BME280;17649;51.836;8.330;2023-01-31T16:12:32;101202.53;;;6.69;nan
30967;BME280;17649;51.836;8.330;2023-01-31T16:15:36;101207.53;;;6.74;nan
30967;BME280;17649;51.836;8.330;2023-01-31T16:18:37;101211.50;;;6.85;nan
30967;BME280;17649;51.836;8.330;2023-01-31T16:21:38;101206.28;;;6.87;nan
30967;BME280;17649;51.836;8.330;2023-01-31T16:24:50;101193.44;;;6.87;nan
30967;BME280;17649;51.836;8.330;2023-01-31T16:27:51;101217.44;;;6.87;nan
30967;BME280;17649;51.836;8.330;2023-01-31T16:30:51;101195.22;;;6.83;nan
30967;BME280;17649;51.836;8.330;2023-01-31T16:33:53;101199.53;;;6.83;nan
30967;BME280;17649;51.836;8.330;2023-01-31T16:36:57;101186.19;;;6.72;nan
30967;BME280;17649;51.836;8.330;2023-01-31T16:40:00;101187.19;;;6.94;nan
30967;BME280;17649;51.836;8.330;2023-01-31T16:46:34;101193.19;;;6.95;nan
30967;BME280;17649;51.836;8.330;2023-01-31T16:49:35;101194.59;;;7.05;nan
30967;BME280;17649;51.836;8.330;2023-01-31T16:52:35;101192.25;;;6.97;nan
30967;BME280;17649;51.836;8.330;2023-01-31T16:55:36;101197.75;;;7.13;nan
30967;BME280;17649;51.836;8.330;2023-01-31T17:01:42;101210.72;;;7.10;nan
30967;BME280;17649;51.836;8.330;2023-01-31T17:04:58;101202.66;;;7.21;nan
30967;BME280;17649;51.836;8.330;2023-01-31T17:07:59;101217.53;;;7.11;nan
30967;BME280;17649;51.836;8.330;2023-01-31T17:10:59;101223.78;;;7.04;nan
30967;BME280;17649;51.836;8.330;2023-01-31T17:13:59;101223.16;;;7.24;nan
30967;BME280;17649;51.836;8.330;2023-01-31T17:16:59;101222.13;;;7.29;nan
30967;BME280;17649;51.836;8.330;2023-01-31T17:20:00;101220.47;;;7.27;nan
30967;BME280;17649;51.836;8.330;2023-01-31T17:23:00;101218.56;;;7.33;nan
30967;BME280;17649;51.836;8.330;2023-01-31T17:26:00;101229.75;;;7.32;nan
30967;BME280;17649;51.836;8.330;2023-01-31T17:29:01;101231.09;;;7.17;nan
30967;BME280;17649;51.836;8.330;2023-01-31T17:32:01;101223.53;;;7.11;nan
30967;BME280;17649;51.836;8.330;2023-01-31T17:35:07;101218.75;;;7.01;nan
30967;BME280;17649;51.836;8.330;2023-01-31T17:38:12;101217.00;;;7.01;nan
30967;BME280;17649;51.836;8.330;2023-01-31T17:41:15;101219.91;;;6.91;nan
30967;BME280;17649;51.836;8.330;2023-01-31T17:44:16;101216.38;;;6.93;nan
30967;BME280;17649;51.836;8.330;2023-01-31T17:47:16;101216.69;;;7.10;nan
30967;BME280;17649;51.836;8.330;2023-01-31T17:50:18;101219.81;;;6.94;nan
30967;BME280;17649;51.836;8.330;2023-01-31T17:53:19;101232.34;;;7.04;nan
30967;BME280;17649;51.836;8.330;2023-01-31T17:56:19;101229.88;;;7.01;nan
30967;BME280;17649;51.836;8.330;2023-01-31T17:59:20;101215.88;;;7.10;nan
30967;BME280;17649;51.836;8.330;2023-01-31T18:02:20;101227.94;;;7.08;nan
30967;BME280;17649;51.836;8.330;2023-01-31T18:05:20;101224.38;;;7.12;nan
30967;BME280;17649;51.836;8.330;2023-01-31T18:08:21;101222.56;;;7.15;nan
30967;BME280;17649;51.836;8.330;2023-01-31T18:11:21;101230.97;;;7.21;nan
30967;BME280;17649;51.836;8.330;2023-01-31T18:14:21;101215.50;;;7.22;nan
30967;BME280;17649;51.836;8.330;2023-01-31T18:17:22;101221.28;;;7.29;nan
30967;BME280;17649;51.836;8.330;2023-01-31T18:20:22;101223.63;;;7.36;nan
30967;BME280;17649;51.836;8.330;2023-01-31T18:23:22;101223.72;;;7.33;nan
30967;BME280;17649;51.836;8.330;2023-01-31T18:26:23;101229.56;;;7.38;nan
30967;BME280;17649;51.836;8.330;2023-01-31T18:29:23;101226.28;;;7.33;nan
30967;BME280;17649;51.836;8.330;2023-01-31T18:32:25;101228.75;;;7.36;nan